Time;durP1;ratioP1;P1;durP2;ratioP2;P2;SDS_P1;SDS_P2;PMS_P1;PMS_P2;Temp;Humidity;BMP_temperature;BMP_pressure;BME280_temperature;BME280_humidity;BME280_pressure;Samples;Min_cycle;Max_cycle;Signal;HPM_P1;HPM_P2
2023/05/12 00:00:24;;;;;;;1.38;1.27;;;;;;;19.69;50.09;96724.25;10400745;28;20038;-46
2023/05/12 00:05:46;;;;;;;2.17;1.40;;;;;;;19.69;50.25;96739.69;10402635;28;20038;-49
2023/05/12 00:11:06;;;;;;;1.55;1.33;;;;;;;19.69;50.21;96737.00;10395812;28;20103;-47
2023/05/12 00:16:25;;;;;;;1.40;1.25;;;;;;;19.68;50.16;96736.22;10430295;28;20100;-49
2023/05/12 00:21:46;;;;;;;1.63;1.40;;;;;;;19.66;50.07;96738.44;10429875;28;20486;-50
2023/05/12 00:27:06;;;;;;;1.20;1.10;;;;;;;19.66;50.03;96738.44;10399216;28;20049;-46
2023/05/12 00:32:26;;;;;;;1.40;1.30;;;;;;;19.65;50.25;96739.56;10426423;28;20041;-49
2023/05/12 00:37:45;;;;;;;1.45;1.35;;;;;;;19.65;50.15;96736.84;10413869;28;20410;-48
2023/05/12 00:43:05;;;;;;;1.60;1.38;;;;;;;19.64;50.18;96735.28;10416673;28;20038;-50
2023/05/12 00:48:25;;;;;;;1.48;1.38;;;;;;;19.64;50.26;96732.56;10424388;28;20049;-46
2023/05/12 00:53:44;;;;;;;1.75;1.30;;;;;;;19.63;50.17;96728.28;10428075;28;20456;-45
2023/05/12 00:59:07;;;;;;;1.40;1.15;;;;;;;19.63;50.20;96738.31;10395163;28;20038;-49
2023/05/12 01:04:29;;;;;;;1.27;1.17;;;;;;;19.62;50.20;96736.69;10388629;28;20509;-55
2023/05/12 01:09:56;;;;;;;1.52;1.42;;;;;;;19.61;50.05;96737.84;10390926;28;20104;-55
2023/05/12 01:15:17;;;;;;;1.33;1.23;;;;;;;19.61;50.10;96743.25;10393182;28;20042;-55
2023/05/12 01:20:37;;;;;;;1.33;1.20;;;;;;;19.60;50.24;96744.34;10421569;28;20038;-55
2023/05/12 01:26:05;;;;;;;1.33;1.23;;;;;;;19.59;50.21;96750.88;10422206;28;20045;-55
2023/05/12 01:31:26;;;;;;;1.30;1.20;;;;;;;19.58;50.22;96751.97;10414685;28;20042;-55
2023/05/12 01:36:46;;;;;;;2.00;1.40;;;;;;;19.59;50.34;96756.28;10406287;28;20049;-55
2023/05/12 01:42:05;;;;;;;1.30;1.20;;;;;;;19.57;50.40;96759.31;10397335;28;20402;-55
2023/05/12 01:47:25;;;;;;;1.52;1.30;;;;;;;19.56;50.25;96761.22;10426498;28;20040;-53
2023/05/12 01:52:57;;;;;;;1.40;1.30;;;;;;;19.55;50.19;96762.31;10425948;28;20064;-55
2023/05/12 01:58:19;;;;;;;1.50;1.40;;;;;;;19.54;50.27;96768.88;10406362;28;20053;-55
2023/05/12 02:03:39;;;;;;;1.55;1.38;;;;;;;19.55;50.19;96775.06;10404718;28;20045;-55
2023/05/12 02:09:04;;;;;;;1.08;1.08;;;;;;;19.53;50.21;96767.25;10426185;28;20096;-55
2023/05/12 02:14:24;;;;;;;1.20;1.10;;;;;;;19.53;50.21;96769.97;10416439;28;20056;-55
2023/05/12 02:19:43;;;;;;;1.30;1.20;;;;;;;19.52;50.24;96771.09;10412243;28;20046;-55
2023/05/12 02:25:06;;;;;;;1.60;1.20;;;;;;;19.53;50.21;96769.97;10396515;28;20042;-55
2023/05/12 02:30:25;;;;;;;1.20;1.10;;;;;;;19.51;50.24;96772.19;10385240;28;20046;-55
2023/05/12 02:35:45;;;;;;;1.30;1.20;;;;;;;19.50;50.20;96769.81;10420376;28;20042;-55
2023/05/12 02:41:06;;;;;;;1.50;1.10;;;;;;;19.50;50.26;96769.81;10394906;28;20041;-55
2023/05/12 02:46:26;;;;;;;1.25;1.15;;;;;;;19.49;50.22;96777.13;10425424;28;20045;-55
2023/05/12 02:51:47;;;;;;;1.48;1.27;;;;;;;19.48;50.22;96775.56;10405239;28;20058;-55
2023/05/12 02:57:07;;;;;;;1.40;1.30;;;;;;;19.47;50.11;96765.88;10374436;28;20054;-55
2023/05/12 03:02:26;;;;;;;1.20;1.10;;;;;;;19.47;50.19;96770.47;10412228;28;20046;-55
2023/05/12 03:07:48;;;;;;;1.30;1.20;;;;;;;19.45;50.23;96762.69;10385486;28;20049;-55
2023/05/12 03:13:07;;;;;;;1.17;1.10;;;;;;;19.45;50.18;96765.41;10394820;28;20478;-55
2023/05/12 03:18:27;;;;;;;1.48;1.20;;;;;;;19.44;50.20;96769.19;10391611;28;20046;-55
2023/05/12 03:23:47;;;;;;;1.27;1.17;;;;;;;19.44;50.21;96773.81;10400682;28;20045;-55
2023/05/12 03:29:07;;;;;;;1.45;1.35;;;;;;;19.40;48.10;96770.19;10392948;28;20509;-55
2023/05/12 03:34:27;;;;;;;1.35;1.25;;;;;;;19.38;49.71;96773.19;10394178;28;20046;-55
2023/05/12 03:39:49;;;;;;;1.48;1.20;;;;;;;19.38;49.75;96773.19;10385575;28;20045;-55
2023/05/12 03:45:09;;;;;;;1.27;1.17;;;;;;;19.39;49.78;96774.81;10418056;28;20042;-55
2023/05/12 03:50:29;;;;;;;1.40;1.30;;;;;;;19.39;49.93;96780.19;10399354;28;20058;-55
2023/05/12 03:55:48;;;;;;;1.38;1.20;;;;;;;19.40;49.98;96778.28;10398967;28;20037;-55
2023/05/12 04:01:08;;;;;;;1.40;1.30;;;;;;;19.40;50.25;96778.28;10417231;28;20045;-55
2023/05/12 04:06:27;;;;;;;3.35;1.65;;;;;;;19.41;49.14;96780.66;10416680;28;20512;-55
2023/05/12 04:11:46;;;;;;;3.60;1.95;;;;;;;19.49;47.05;96785.25;10417656;28;20107;-55
2023/05/12 04:17:05;;;;;;;4.03;2.28;;;;;;;19.52;45.34;96794.59;10401434;28;20053;-56
2023/05/12 04:22:25;;;;;;;1.85;1.55;;;;;;;19.47;47.43;96792.09;10412897;28;20177;-55
2023/05/12 04:27:45;;;;;;;2.30;1.90;;;;;;;19.44;48.21;96796.22;10424650;28;20048;-55
2023/05/12 04:33:04;;;;;;;4.22;1.80;;;;;;;19.44;48.46;96804.31;10416688;28;20482;-55
2023/05/12 04:38:24;;;;;;;5.38;1.90;;;;;;;19.44;48.61;96812.44;10419771;28;20153;-55
2023/05/12 04:43:43;;;;;;;2.40;1.83;;;;;;;19.44;48.90;96823.22;10410483;28;20046;-55
2023/05/12 04:49:03;;;;;;;1.88;1.77;;;;;;;19.44;48.88;96831.34;10423310;28;20116;-55
2023/05/12 04:54:23;;;;;;;1.52;1.42;;;;;;;19.46;48.90;96833.72;10388700;28;20100;-55
2023/05/12 04:59:43;;;;;;;3.83;1.80;;;;;;;19.48;49.20;96826.91;10404319;28;20045;-55
2023/05/12 05:05:03;;;;;;;10.52;3.50;;;;;;;19.46;46.80;96831.81;10394773;28;20430;-56
2023/05/12 05:10:24;;;;;;;11.55;4.00;;;;;;;19.45;47.81;96834.84;10390253;28;20056;-55
2023/05/12 05:15:49;;;;;;;6.25;3.13;;;;;;;19.46;48.46;96834.50;10395154;28;20049;-55
2023/05/12 05:21:09;;;;;;;4.45;2.70;;;;;;;19.49;48.98;96835.78;10408756;28;20037;-55
2023/05/12 05:26:29;;;;;;;6.72;2.85;;;;;;;19.51;49.32;96839.75;10414001;28;20045;-55
2023/05/12 05:31:48;;;;;;;6.57;2.75;;;;;;;19.52;49.40;96844.06;10393144;28;20053;-55
2023/05/12 05:37:08;;;;;;;6.00;2.70;;;;;;;19.53;49.50;96845.63;10386232;28;20042;-55
2023/05/12 05:42:29;;;;;;;6.85;3.00;;;;;;;19.55;49.53;96848.00;10388565;28;20095;-55
2023/05/12 05:47:51;;;;;;;8.95;3.03;;;;;;;19.58;49.47;96865.47;10407844;28;20103;-55
2023/05/12 05:53:10;;;;;;;10.00;3.35;;;;;;;19.59;49.44;96853.56;10392713;28;20092;-55
2023/05/12 05:58:30;;;;;;;8.18;3.20;;;;;;;19.61;49.64;96868.34;10400512;28;20053;-55
2023/05/12 06:03:51;;;;;;;9.75;3.10;;;;;;;19.62;49.63;96871.81;10398356;28;20046;-55
2023/05/12 06:09:11;;;;;;;8.77;3.35;;;;;;;19.64;49.63;96870.41;10395831;28;20049;-55
2023/05/12 06:14:31;;;;;;;4.97;3.05;;;;;;;19.66;49.76;96884.38;10386187;28;20112;-55
2023/05/12 06:19:51;;;;;;;7.65;3.17;;;;;;;19.68;49.73;96875.94;10398924;28;20041;-56
2023/05/12 06:25:11;;;;;;;7.32;3.47;;;;;;;19.70;49.75;96887.25;10390983;28;20045;-55
2023/05/12 06:30:30;;;;;;;8.68;3.45;;;;;;;19.71;49.90;96899.63;10387755;28;20049;-55
2023/05/12 06:35:50;;;;;;;7.00;2.97;;;;;;;19.74;49.79;96901.72;10405540;28;20394;-55
2023/05/12 06:41:09;;;;;;;5.68;3.13;;;;;;;19.75;49.83;96900.59;10385557;28;20042;-55
2023/05/12 06:46:29;;;;;;;7.78;3.42;;;;;;;19.77;49.92;96901.06;10391944;28;20441;-55
2023/05/12 06:51:48;;;;;;;6.13;2.70;;;;;;;19.78;49.91;96905.38;10386915;28;20062;-55
2023/05/12 06:57:08;;;;;;;6.70;3.17;;;;;;;19.81;49.90;96904.72;10399162;28;20057;-55
2023/05/12 07:02:29;;;;;;;6.15;3.05;;;;;;;19.82;49.83;96906.31;10396065;28;20042;-55
2023/05/12 07:07:48;;;;;;;3.97;2.42;;;;;;;19.84;49.90;96903.28;10400225;28;20046;-55
2023/05/12 07:13:08;;;;;;;19.77;3.90;;;;;;;19.86;51.13;96904.53;10395522;28;20053;-55
2023/05/12 07:18:27;;;;;;;7.03;2.60;;;;;;;19.87;52.49;96905.31;10419139;28;20045;-55
2023/05/12 07:23:47;;;;;;;10.45;3.50;;;;;;;19.89;52.93;96897.69;10420758;28;20041;-55
2023/05/12 07:29:09;;;;;;;8.20;4.22;;;;;;;19.90;53.34;96897.38;10397579;28;20049;-55
2023/05/12 07:34:31;;;;;;;6.20;2.80;;;;;;;19.92;54.17;96897.84;10394585;28;20510;-55
2023/05/12 07:39:51;;;;;;;9.52;3.58;;;;;;;19.94;53.59;96894.81;10409431;28;20045;-55
2023/05/12 07:45:10;;;;;;;5.35;2.40;;;;;;;19.95;53.39;96907.19;10404663;28;20064;-55
2023/05/12 07:50:30;;;;;;;4.97;2.50;;;;;;;19.98;52.99;96901.16;10391269;28;20065;-55
2023/05/12 07:55:49;;;;;;;5.90;3.03;;;;;;;19.99;52.88;96910.06;10402372;28;20092;-55
2023/05/12 08:01:09;;;;;;;5.57;2.70;;;;;;;20.01;52.47;96905.13;10389414;28;20050;-55
2023/05/12 08:06:29;;;;;;;6.15;2.63;;;;;;;20.03;52.44;96921.81;10391509;28;20498;-55
2023/05/12 08:11:49;;;;;;;6.78;2.95;;;;;;;20.03;52.16;96914.50;10409701;28;20050;-55
2023/05/12 08:17:09;;;;;;;4.03;2.40;;;;;;;20.05;52.05;96916.88;10396156;28;20056;-55
2023/05/12 08:22:29;;;;;;;6.20;2.72;;;;;;;20.07;52.00;96915.44;10417327;28;20045;-55
2023/05/12 08:27:48;;;;;;;8.10;2.92;;;;;;;20.10;51.90;96916.69;10412601;28;20042;-55
2023/05/12 08:33:07;;;;;;;5.38;2.67;;;;;;;20.10;51.84;96917.50;10405067;28;20061;-55
2023/05/12 08:38:27;;;;;;;5.90;2.70;;;;;;;20.12;51.71;96911.75;10408625;28;20048;-55
2023/05/12 08:43:51;;;;;;;4.93;2.60;;;;;;;20.14;51.80;96915.72;10430307;28;20037;-55
2023/05/12 08:49:16;;;;;;;3.65;2.35;;;;;;;20.15;51.50;96911.91;10383515;28;20089;-55
2023/05/12 08:54:36;;;;;;;6.82;2.53;;;;;;;20.18;51.45;96915.88;10387060;28;20124;-55
2023/05/12 08:59:58;;;;;;;6.30;2.40;;;;;;;20.20;51.41;96913.63;10389637;28;20042;-55
2023/05/12 09:05:17;;;;;;;4.70;2.50;;;;;;;20.22;51.34;96918.72;10391348;28;20049;-55
2023/05/12 09:10:37;;;;;;;4.75;2.55;;;;;;;20.23;51.33;96913.00;10414711;28;20120;-55
2023/05/12 09:15:59;;;;;;;6.68;2.50;;;;;;;20.26;51.20;96911.53;10387949;28;20045;-55
2023/05/12 09:21:20;;;;;;;5.38;2.85;;;;;;;20.26;51.23;96915.03;10390627;28;20037;-55
2023/05/12 09:26:50;;;;;;;5.00;2.42;;;;;;;20.27;51.15;96913.94;10406870;28;20069;-55
2023/05/12 09:32:09;;;;;;;6.35;3.10;;;;;;;20.29;51.06;96922.50;10414763;28;20061;-55
2023/05/12 09:37:34;;;;;;;8.00;2.90;;;;;;;20.30;51.01;96924.06;10397609;28;20041;-55
2023/05/12 09:42:53;;;;;;;7.05;2.65;;;;;;;20.31;50.98;96914.84;10399216;28;20045;-55
2023/05/12 09:48:13;;;;;;;7.28;2.78;;;;;;;20.33;51.05;96928.84;10394707;28;20049;-55
2023/05/12 09:53:41;;;;;;;9.15;3.33;;;;;;;20.34;50.90;96918.81;10390318;28;20401;-55
2023/05/12 09:59:03;;;;;;;8.13;3.50;;;;;;;20.35;51.04;96928.53;10373479;28;20081;-55
2023/05/12 10:04:22;;;;;;;12.40;4.57;;;;;;;20.36;51.00;96911.16;10403117;28;20091;-55
2023/05/12 10:09:43;;;;;;;11.48;4.20;;;;;;;20.39;50.91;96920.56;10397353;28;20041;-56
2023/05/12 10:15:03;;;;;;;11.55;4.00;;;;;;;20.39;50.96;96920.56;10375903;28;20072;-55
2023/05/12 10:20:23;;;;;;;8.75;3.47;;;;;;;20.39;50.85;96909.72;10413408;28;20096;-55
2023/05/12 10:25:43;;;;;;;8.65;3.67;;;;;;;20.39;50.84;96905.09;10404911;28;20049;-55
2023/05/12 10:31:05;;;;;;;8.95;3.30;;;;;;;20.40;50.83;96912.09;10413292;28;20045;-55
2023/05/12 10:36:25;;;;;;;10.40;3.40;;;;;;;20.41;50.74;96919.09;10387896;28;20509;-55
2023/05/12 10:41:44;;;;;;;8.27;3.58;;;;;;;20.41;50.79;96910.19;10385952;28;20783;-55
2023/05/12 10:47:16;;;;;;;9.18;3.70;;;;;;;20.42;50.83;96912.56;10388221;28;20398;-55
2023/05/12 10:52:35;;;;;;;9.40;3.80;;;;;;;20.42;50.82;96909.84;10385217;28;20056;-55
2023/05/12 10:58:03;;;;;;;10.00;3.90;;;;;;;20.43;51.37;96908.75;10387405;28;20038;-55
2023/05/12 11:03:24;;;;;;;8.85;4.15;;;;;;;20.44;51.49;96917.66;10407625;28;20041;-55
2023/05/12 11:08:44;;;;;;;8.57;3.45;;;;;;;20.43;51.45;96921.50;10399283;28;20053;-55
2023/05/12 11:14:04;;;;;;;7.30;3.25;;;;;;;20.44;51.62;96914.94;10384762;28;20042;-55
2023/05/12 11:19:24;;;;;;;9.25;2.92;;;;;;;20.44;51.49;96912.22;10384577;28;20042;-55
2023/05/12 11:24:44;;;;;;;6.07;2.90;;;;;;;20.45;51.51;96913.84;10411355;28;20403;-55
2023/05/12 11:30:04;;;;;;;4.93;2.65;;;;;;;20.46;51.56;96910.78;10398015;28;20050;-55
2023/05/12 11:35:29;;;;;;;3.85;2.13;;;;;;;20.45;51.55;96905.72;10400749;28;20398;-55
2023/05/12 11:40:49;;;;;;;4.90;2.60;;;;;;;20.46;51.46;96899.97;10390592;28;20449;-55
2023/05/12 11:46:08;;;;;;;4.63;2.72;;;;;;;20.45;51.50;96903.78;10397359;28;20042;-55
2023/05/12 11:51:28;;;;;;;6.03;2.53;;;;;;;20.45;51.37;96908.44;10386023;28;20061;-55
2023/05/12 11:56:52;;;;;;;6.10;2.88;;;;;;;20.45;51.42;96920.03;10378073;28;20058;-55
2023/05/12 12:02:19;;;;;;;6.80;2.92;;;;;;;20.46;51.35;96926.22;10396975;28;20073;-55
2023/05/12 12:07:38;;;;;;;5.25;2.50;;;;;;;20.46;51.34;96916.19;10413280;28;20060;-55
2023/05/12 12:13:00;;;;;;;4.55;2.58;;;;;;;20.47;51.29;96919.72;10382820;28;20159;-55
2023/05/12 12:18:19;;;;;;;3.55;2.30;;;;;;;20.46;51.83;96921.59;10403966;28;20038;-55
2023/05/12 12:23:39;;;;;;;5.15;2.40;;;;;;;20.45;51.81;96917.31;10379486;28;20453;-55
2023/05/12 12:28:59;;;;;;;5.97;2.60;;;;;;;20.45;51.67;96933.56;10396006;28;20119;-55
2023/05/12 12:34:18;;;;;;;4.47;2.40;;;;;;;20.47;51.74;96925.13;10408488;28;20045;-55
2023/05/12 12:39:38;;;;;;;5.88;2.92;;;;;;;20.45;51.78;96919.25;10390440;28;20046;-55
2023/05/12 12:44:57;;;;;;;4.80;2.30;;;;;;;20.45;51.81;96927.38;10407703;28;20033;-55
2023/05/12 12:50:17;;;;;;;3.70;2.35;;;;;;;20.45;51.79;96933.56;10407570;28;20058;-55
2023/05/12 12:55:37;;;;;;;3.95;2.33;;;;;;;20.45;51.75;96935.47;10391484;28;20096;-55
2023/05/12 13:00:56;;;;;;;4.13;2.00;;;;;;;20.43;51.76;96935.81;10391503;28;20037;-55
2023/05/12 13:06:17;;;;;;;4.15;2.15;;;;;;;20.43;51.76;96940.44;10388480;28;20058;-55
2023/05/12 13:11:37;;;;;;;4.28;2.40;;;;;;;20.43;51.79;96924.97;10381082;28;20081;-55
2023/05/12 13:16:57;;;;;;;3.50;2.10;;;;;;;20.44;51.74;96917.66;10402315;28;20038;-55
2023/05/12 13:22:17;;;;;;;3.88;2.20;;;;;;;20.43;51.71;96929.59;10398871;28;20052;-55
2023/05/12 13:27:37;;;;;;;5.57;2.08;;;;;;;20.44;51.70;96917.66;10393436;28;20044;-55
2023/05/12 13:32:56;;;;;;;5.60;2.50;;;;;;;20.44;51.75;96928.47;10393330;28;20041;-55
2023/05/12 13:38:16;;;;;;;3.13;1.90;;;;;;;20.45;51.69;96927.38;10416697;28;20104;-55
2023/05/12 13:43:36;;;;;;;4.57;2.25;;;;;;;20.44;51.70;96926.56;10415077;28;20046;-55
2023/05/12 13:48:55;;;;;;;3.42;1.85;;;;;;;20.45;51.66;96932.78;10388293;28;20062;-55
2023/05/12 13:54:15;;;;;;;2.80;1.73;;;;;;;20.45;51.68;96930.84;10386558;28;20044;-55
2023/05/12 13:59:34;;;;;;;3.67;1.80;;;;;;;20.45;51.70;96943.59;10396335;28;20452;-55
2023/05/12 14:04:54;;;;;;;2.75;1.55;;;;;;;20.44;51.64;96950.91;10395521;28;20482;-55
2023/05/12 14:10:14;;;;;;;3.30;1.75;;;;;;;20.43;51.69;96953.97;10391080;28;20041;-55
2023/05/12 14:15:33;;;;;;;2.22;1.55;;;;;;;20.44;51.69;96945.50;10427222;28;20042;-55
2023/05/12 14:20:53;;;;;;;2.50;1.70;;;;;;;20.43;48.91;96951.25;10412296;28;20040;-49
2023/05/12 14:26:12;;;;;;;5.30;1.80;;;;;;;20.41;50.60;96948.09;10392079;28;20053;-47
2023/05/12 14:31:32;;;;;;;2.63;2.00;;;;;;;20.27;43.21;96957.22;10395419;28;20076;-47
2023/05/12 14:36:52;;;;;;;2.08;1.67;;;;;;;20.05;40.90;96949.31;10397305;28;20042;-59
2023/05/12 14:42:12;;;;;;;4.10;2.05;;;;;;;19.95;40.78;96955.88;10388471;28;20510;-57
2023/05/12 14:47:32;;;;;;;2.75;1.88;;;;;;;19.99;42.87;96958.72;10389212;28;20096;-58
2023/05/12 14:52:52;;;;;;;5.80;1.80;;;;;;;20.08;43.07;96960.28;10393756;28;20041;-55
2023/05/12 14:58:11;;;;;;;2.95;1.80;;;;;;;20.14;42.83;96958.22;10389402;28;20049;-57
2023/05/12 15:03:32;;;;;;;5.82;2.00;;;;;;;20.15;42.80;96960.59;10398734;28;20042;-52
2023/05/12 15:08:51;;;;;;;3.13;1.45;;;;;;;20.17;41.56;96968.38;10398616;28;20052;-50
2023/05/12 15:14:11;;;;;;;3.42;1.50;;;;;;;20.11;39.76;96970.47;10379723;28;20057;-49
2023/05/12 15:19:31;;;;;;;2.80;1.50;;;;;;;20.12;40.27;96961.22;10403639;28;20042;-54
2023/05/12 15:24:50;;;;;;;2.30;1.80;;;;;;;20.05;40.36;96955.53;10411839;28;20416;-50
2023/05/12 15:30:10;;;;;;;3.50;1.50;;;;;;;20.08;41.02;96963.00;10406318;28;20045;-50
2023/05/12 15:35:29;;;;;;;3.25;1.90;;;;;;;20.08;40.29;96964.91;10391647;28;20069;-51
2023/05/12 15:40:50;;;;;;;4.10;1.08;;;;;;;20.06;39.39;96967.94;10394435;28;20506;-48
2023/05/12 15:46:10;;;;;;;1.60;1.50;;;;;;;20.07;41.80;96966.03;10397448;28;20092;-46
2023/05/12 15:51:31;;;;;;;1.80;1.70;;;;;;;20.07;43.30;96966.03;10393949;28;20514;-47
2023/05/12 15:56:50;;;;;;;1.95;1.50;;;;;;;20.06;44.29;96967.94;10410317;28;20553;-46
2023/05/12 16:02:10;;;;;;;3.28;1.50;;;;;;;20.03;43.65;96970.50;10394917;28;20038;-46
2023/05/12 16:07:30;;;;;;;4.55;1.90;;;;;;;20.05;44.37;96970.97;10394828;28;20049;-48
2023/05/12 16:12:49;;;;;;;1.45;1.35;;;;;;;20.06;45.46;96973.34;10394822;28;20088;-48
2023/05/12 16:18:08;;;;;;;12.13;4.18;;;;;;;20.08;46.08;96971.09;10408337;28;20083;-49
2023/05/12 16:23:27;;;;;;;81.50;17.38;;;;;;;20.08;45.42;96970.31;10392287;28;20053;-47
2023/05/12 16:28:47;;;;;;;9.00;3.08;;;;;;;19.86;41.25;96969.44;10391891;28;20050;-47
2023/05/12 16:34:06;;;;;;;13.52;3.00;;;;;;;19.67;40.67;96971.66;10395788;28;20068;-46
2023/05/12 16:39:26;;;;;;;8.30;3.85;;;;;;;19.57;40.16;96970.09;10392390;28;20388;-46
2023/05/12 16:44:45;;;;;;;5.47;2.63;;;;;;;19.46;40.17;96979.63;10421180;28;20033;-46
2023/05/12 16:50:06;;;;;;;4.60;2.45;;;;;;;19.45;40.48;96988.84;10406967;28;20065;-46
2023/05/12 16:55:25;;;;;;;10.77;2.10;;;;;;;19.35;39.81;96987.28;10409988;28;20042;-46
2023/05/12 17:00:45;;;;;;;5.60;2.10;;;;;;;19.11;40.21;96996.63;10376253;28;20049;-47
2023/05/12 17:06:05;;;;;;;3.42;1.75;;;;;;;19.21;39.74;96997.41;10387984;28;20042;-49
2023/05/12 17:11:24;;;;;;;4.45;1.80;;;;;;;19.29;38.85;97004.75;10394419;28;20052;-47
2023/05/12 17:16:44;;;;;;;6.72;1.80;;;;;;;19.31;38.76;97002.53;10414791;28;20042;-47
2023/05/12 17:22:04;;;;;;;5.65;2.00;;;;;;;19.39;40.10;97003.63;10377681;28;20112;-58
2023/05/12 17:27:24;;;;;;;5.40;2.00;;;;;;;19.51;41.52;97011.91;10387310;28;20038;-61
2023/05/12 17:32:44;;;;;;;4.57;2.15;;;;;;;19.56;42.16;97023.34;10412587;28;20099;-65
2023/05/12 17:38:04;;;;;;;2.88;2.10;;;;;;;19.63;43.08;97013.97;10407057;28;20370;-59
2023/05/12 17:43:24;;;;;;;7.10;2.60;;;;;;;19.66;44.02;97034.91;10400301;28;20041;-65
2023/05/12 17:48:43;;;;;;;5.25;2.53;;;;;;;19.70;44.88;97042.09;10396420;28;20049;-66
2023/05/12 17:54:02;;;;;;;3.97;2.53;;;;;;;19.71;45.54;97032.88;10394446;28;20042;-73
2023/05/12 17:59:22;;;;;;;4.25;2.30;;;;;;;19.74;46.04;97037.66;10397784;28;20460;-55
2023/05/12 18:04:42;;;;;;;4.45;2.50;;;;;;;19.76;46.40;97026.53;10411440;28;20048;-55
2023/05/12 18:10:02;;;;;;;4.43;2.20;;;;;;;19.79;46.70;97033.22;10415174;28;20505;-61
2023/05/12 18:15:23;;;;;;;3.15;2.58;;;;;;;19.79;46.73;97028.59;10388549;28;20494;-58
2023/05/12 18:20:42;;;;;;;4.90;2.25;;;;;;;19.82;47.14;97029.88;10397527;28;20442;-58
2023/05/12 18:26:02;;;;;;;2.05;1.88;;;;;;;19.84;47.44;97039.25;10386119;28;20115;-58
2023/05/12 18:31:21;;;;;;;3.55;2.20;;;;;;;19.87;47.55;97051.31;10385725;28;20049;-62
2023/05/12 18:36:41;;;;;;;2.70;2.05;;;;;;;19.87;47.76;97065.63;10415404;28;20510;-65
2023/05/12 18:42:01;;;;;;;4.10;2.22;;;;;;;19.87;48.03;97071.03;10388356;28;20045;-64
2023/05/12 18:47:21;;;;;;;4.00;2.15;;;;;;;19.89;48.32;97087.72;10401375;28;20046;-62
2023/05/12 18:52:41;;;;;;;3.28;2.30;;;;;;;19.90;48.45;97088.56;10404395;28;20042;-60
2023/05/12 18:58:01;;;;;;;1.80;1.70;;;;;;;19.92;48.74;97087.09;10396171;28;20180;-45
2023/05/12 19:03:21;;;;;;;6.60;2.10;;;;;;;19.93;48.93;97086.00;10395802;28;20108;-48
2023/05/12 19:08:41;;;;;;;2.50;2.30;;;;;;;19.94;49.03;97084.09;10398929;28;20053;-48
2023/05/12 19:14:00;;;;;;;3.63;2.10;;;;;;;19.97;49.22;97090.75;10392534;28;20071;-47
2023/05/12 19:19:20;;;;;;;7.03;1.83;;;;;;;19.98;49.73;97100.47;10395448;28;20033;-49
2023/05/12 19:24:39;;;;;;;4.38;2.05;;;;;;;20.01;49.96;97099.81;10392127;28;20038;-48
2023/05/12 19:30:03;;;;;;;5.40;2.03;;;;;;;20.01;50.17;97105.22;10393261;28;20050;-48
2023/05/12 19:35:23;;;;;;;3.80;2.00;;;;;;;20.02;50.28;97101.44;10395527;28;20091;-46
2023/05/12 19:40:43;;;;;;;5.15;1.90;;;;;;;20.04;50.46;97101.91;10419268;28;20508;-46
2023/05/12 19:46:03;;;;;;;1.90;1.80;;;;;;;20.04;50.54;97112.72;10410307;28;20490;-49
2023/05/12 19:51:22;;;;;;;2.70;2.05;;;;;;;20.05;50.57;97122.41;10392549;28;20061;-50
2023/05/12 19:56:41;;;;;;;2.88;1.77;;;;;;;20.05;50.95;97131.34;10397530;28;20119;-46
2023/05/12 20:02:01;;;;;;;1.98;1.63;;;;;;;20.05;51.06;97139.44;10402124;28;20049;-49
2023/05/12 20:07:21;;;;;;;4.53;1.77;;;;;;;20.06;51.21;97132.91;10390645;28;20046;-48
2023/05/12 20:12:40;;;;;;;3.65;1.80;;;;;;;20.08;51.18;97127.19;10395160;28;20045;-46
2023/05/12 20:18:00;;;;;;;2.10;1.90;;;;;;;20.09;51.17;97109.84;10408618;28;20037;-48
2023/05/12 20:23:19;;;;;;;2.10;1.90;;;;;;;20.10;51.14;97114.94;10412083;28;20529;-46
2023/05/12 20:28:39;;;;;;;3.63;2.00;;;;;;;20.11;51.03;97118.41;10406124;28;20077;-48
2023/05/12 20:34:00;;;;;;;2.50;1.60;;;;;;;20.12;51.00;97123.50;10400920;28;20049;-47
2023/05/12 20:39:19;;;;;;;2.75;2.08;;;;;;;20.11;51.06;97118.41;10394082;28;20387;-48
2023/05/12 20:44:39;;;;;;;3.15;1.50;;;;;;;20.12;50.97;97117.31;10403894;28;20045;-47
2023/05/12 20:50:04;;;;;;;2.47;1.70;;;;;;;20.12;51.03;97117.31;10390643;28;20065;-46
2023/05/12 20:55:24;;;;;;;1.75;1.60;;;;;;;20.13;51.11;97121.59;10394382;28;20430;-45
2023/05/12 21:00:44;;;;;;;2.67;1.50;;;;;;;20.12;51.20;97117.31;10391635;28;20050;-47
2023/05/12 21:06:04;;;;;;;1.63;1.52;;;;;;;20.12;51.01;97122.72;10391193;28;20041;-47
2023/05/12 21:11:25;;;;;;;1.85;1.50;;;;;;;20.11;51.12;97121.94;10388062;28;20045;-48
2023/05/12 21:16:45;;;;;;;1.42;1.33;;;;;;;20.13;51.18;97124.31;10391231;28;20401;-49
2023/05/12 21:22:05;;;;;;;2.30;1.80;;;;;;;20.12;51.22;97120.81;10401951;28;20053;-51
2023/05/12 21:27:25;;;;;;;3.35;1.70;;;;;;;20.13;51.43;97124.31;10397006;28;20052;-49
2023/05/12 21:32:44;;;;;;;1.85;1.70;;;;;;;20.12;51.43;97125.44;10400775;28;20494;-48
2023/05/12 21:38:06;;;;;;;2.10;1.50;;;;;;;20.11;51.47;97119.25;10406751;28;20478;-49
2023/05/12 21:43:25;;;;;;;2.65;1.67;;;;;;;20.12;51.52;97122.72;10395937;28;20038;-50
2023/05/12 21:48:45;;;;;;;2.90;1.98;;;;;;;20.12;51.52;97138.97;10406004;28;20061;-48
2023/05/12 21:54:04;;;;;;;1.90;1.70;;;;;;;20.12;51.67;97133.53;10386785;28;20048;-49
2023/05/12 21:59:24;;;;;;;1.77;1.67;;;;;;;20.11;51.61;97132.75;10395618;28;20401;-50
2023/05/12 22:04:43;;;;;;;1.70;1.60;;;;;;;20.11;51.70;97134.66;10388975;28;20041;-47
2023/05/12 22:10:03;;;;;;;1.58;1.48;;;;;;;20.10;51.68;97125.75;10406045;28;20048;-49
2023/05/12 22:15:23;;;;;;;1.75;1.50;;;;;;;20.11;51.71;97123.81;10405565;28;20095;-48
2023/05/12 22:20:43;;;;;;;1.88;1.67;;;;;;;20.11;51.65;97129.25;10404102;28;20038;-47
2023/05/12 22:26:03;;;;;;;1.63;1.40;;;;;;;20.09;51.64;97115.25;10386374;28;20402;-49
2023/05/12 22:31:22;;;;;;;1.58;1.48;;;;;;;20.09;51.79;97118.75;10385605;28;20049;-49
2023/05/12 22:36:42;;;;;;;1.80;1.55;;;;;;;20.09;51.70;97107.13;10418527;28;20053;-47
2023/05/12 22:42:02;;;;;;;2.00;1.52;;;;;;;20.09;51.73;97112.53;10401906;28;20042;-49
2023/05/12 22:47:21;;;;;;;1.77;1.50;;;;;;;20.10;51.81;97111.44;10387824;28;20050;-47
2023/05/12 22:52:41;;;;;;;1.52;1.38;;;;;;;20.08;51.77;97113.66;10388269;28;20054;-50
2023/05/12 22:58:00;;;;;;;1.60;1.50;;;;;;;20.08;51.78;97113.66;10388544;28;20045;-49
2023/05/12 23:03:19;;;;;;;2.33;1.58;;;;;;;20.07;51.77;97112.88;10388221;28;20042;-49
2023/05/12 23:08:39;;;;;;;1.50;1.40;;;;;;;20.07;51.85;97112.06;10396357;28;20046;-49
2023/05/12 23:13:58;;;;;;;1.50;1.40;;;;;;;20.06;51.60;97118.59;10387969;28;20054;-49
2023/05/12 23:19:18;;;;;;;1.58;1.42;;;;;;;20.06;51.76;97122.09;10396731;28;20482;-45
2023/05/12 23:24:38;;;;;;;1.50;1.40;;;;;;;20.04;51.80;97110.78;10413653;28;20042;-49
2023/05/12 23:29:58;;;;;;;2.28;1.40;;;;;;;20.04;51.79;97113.50;10386470;28;20073;-49
2023/05/12 23:35:18;;;;;;;1.40;1.30;;;;;;;20.04;51.78;97113.50;10406504;28;20413;-46
2023/05/12 23:40:38;;;;;;;1.70;1.30;;;;;;;20.04;51.86;97113.50;10391744;28;20049;-47
2023/05/12 23:45:57;;;;;;;1.42;1.33;;;;;;;20.03;51.97;97109.22;10397563;28;20046;-47
2023/05/12 23:51:16;;;;;;;1.42;1.30;;;;;;;20.02;51.89;97113.03;10400254;28;20057;-49
2023/05/12 23:56:36;;;;;;;2.50;1.40;;;;;;;20.01;51.90;97113.34;10408634;28;20048;-46
